Terminal Aerodrome Forecast
Issued by NWS

Home | Current Version | Previous Version | Graphics & Text | Print | Product List | Glossary On
Versions: 1 2 3 4 5 6 7 8 9 10 11 12 13
000
FTUS43 KICT 232254 AAB
TAFCNU
TAF AMD
KCNU 232254Z 2323/2418 34020G30KT P6SM -RADZ SCT015 OVC025
      TEMPO 2323/2324 OVC015
     FM240000 33024G33KT P6SM -RA SCT015 OVC025
     FM240500 31017G24KT P6SM SCT060 BKN100
     FM240900 29014KT P6SM BKN040=

USA.gov is the U.S. government's official web portal to all federal, state and local government web resources and services.